sensor_id;sensor_type;location;lat;lon;timestamp;temperature;humidity
26599;DHT22;14240;51.064;16.612;2023-04-03T00:00:04;2.50;99.90
26599;DHT22;14240;51.064;16.612;2023-04-03T00:02:30;2.40;99.90
26599;DHT22;14240;51.064;16.612;2023-04-03T00:04:56;2.40;99.90
26599;DHT22;14240;51.064;16.612;2023-04-03T00:07:21;2.40;99.90
26599;DHT22;14240;51.064;16.612;2023-04-03T00:09:47;2.40;99.90
26599;DHT22;14240;51.064;16.612;2023-04-03T00:12:13;2.30;99.90
26599;DHT22;14240;51.064;16.612;2023-04-03T00:14:39;2.30;99.90
26599;DHT22;14240;51.064;16.612;2023-04-03T00:17:04;2.30;99.90
26599;DHT22;14240;51.064;16.612;2023-04-03T00:19:30;2.30;99.90
26599;DHT22;14240;51.064;16.612;2023-04-03T00:21:56;2.20;99.90
26599;DHT22;14240;51.064;16.612;2023-04-03T00:24:22;2.20;99.90
26599;DHT22;14240;51.064;16.612;2023-04-03T00:26:47;2.30;99.90
26599;DHT22;14240;51.064;16.612;2023-04-03T00:29:13;2.20;99.90
26599;DHT22;14240;51.064;16.612;2023-04-03T00:31:40;2.20;99.90
26599;DHT22;14240;51.064;16.612;2023-04-03T00:34:05;2.20;99.90
26599;DHT22;14240;51.064;16.612;2023-04-03T00:36:31;2.20;99.90
26599;DHT22;14240;51.064;16.612;2023-04-03T00:38:57;2.20;99.90
26599;DHT22;14240;51.064;16.612;2023-04-03T00:41:22;2.20;99.90
26599;DHT22;14240;51.064;16.612;2023-04-03T00:43:48;2.20;99.90
26599;DHT22;14240;51.064;16.612;2023-04-03T00:46:14;2.10;99.90
26599;DHT22;14240;51.064;16.612;2023-04-03T00:48:42;2.10;99.90
26599;DHT22;14240;51.064;16.612;2023-04-03T00:51:29;2.10;99.90
26599;DHT22;14240;51.064;16.612;2023-04-03T00:54:00;2.10;99.90
26599;DHT22;14240;51.064;16.612;2023-04-03T00:56:28;2.10;99.90
26599;DHT22;14240;51.064;16.612;2023-04-03T00:59:01;2.10;99.90
26599;DHT22;14240;51.064;16.612;2023-04-03T01:01:28;2.10;99.90
26599;DHT22;14240;51.064;16.612;2023-04-03T01:03:55;2.10;99.90
26599;DHT22;14240;51.064;16.612;2023-04-03T01:06:26;2.10;99.90
26599;DHT22;14240;51.064;16.612;2023-04-03T01:08:53;2.10;99.90
26599;DHT22;14240;51.064;16.612;2023-04-03T01:11:19;2.00;99.90
26599;DHT22;14240;51.064;16.612;2023-04-03T01:13:46;2.10;99.90
26599;DHT22;14240;51.064;16.612;2023-04-03T01:16:12;2.10;99.90
26599;DHT22;14240;51.064;16.612;2023-04-03T01:18:39;2.10;99.90
26599;DHT22;14240;51.064;16.612;2023-04-03T01:26:36;2.10;99.90
26599;DHT22;14240;51.064;16.612;2023-04-03T01:29:02;2.10;99.90
26599;DHT22;14240;51.064;16.612;2023-04-03T01:31:44;2.10;99.90
26599;DHT22;14240;51.064;16.612;2023-04-03T01:34:10;2.10;99.90
26599;DHT22;14240;51.064;16.612;2023-04-03T01:36:36;2.10;99.90
26599;DHT22;14240;51.064;16.612;2023-04-03T01:39:02;2.10;99.90
26599;DHT22;14240;51.064;16.612;2023-04-03T01:41:28;2.10;99.90
26599;DHT22;14240;51.064;16.612;2023-04-03T01:43:54;2.10;99.90
26599;DHT22;14240;51.064;16.612;2023-04-03T01:46:21;2.10;99.90
26599;DHT22;14240;51.064;16.612;2023-04-03T01:48:47;2.10;99.90
26599;DHT22;14240;51.064;16.612;2023-04-03T01:51:13;2.10;99.90
26599;DHT22;14240;51.064;16.612;2023-04-03T01:53:39;2.10;99.90
26599;DHT22;14240;51.064;16.612;2023-04-03T01:56:05;2.10;99.90
26599;DHT22;14240;51.064;16.612;2023-04-03T01:58:31;2.10;99.90
26599;DHT22;14240;51.064;16.612;2023-04-03T02:00:57;2.10;99.90
26599;DHT22;14240;51.064;16.612;2023-04-03T02:03:22;2.10;99.90
26599;DHT22;14240;51.064;16.612;2023-04-03T02:05:49;2.00;99.90
26599;DHT22;14240;51.064;16.612;2023-04-03T02:08:15;2.00;99.90
26599;DHT22;14240;51.064;16.612;2023-04-03T02:10:43;2.00;99.90
26599;DHT22;14240;51.064;16.612;2023-04-03T02:13:10;2.00;99.90
26599;DHT22;14240;51.064;16.612;2023-04-03T02:15:38;1.90;99.90
26599;DHT22;14240;51.064;16.612;2023-04-03T02:18:04;1.90;99.90
26599;DHT22;14240;51.064;16.612;2023-04-03T02:20:30;1.90;99.90
26599;DHT22;14240;51.064;16.612;2023-04-03T02:22:55;1.80;99.90
26599;DHT22;14240;51.064;16.612;2023-04-03T02:25:21;1.80;99.90
26599;DHT22;14240;51.064;16.612;2023-04-03T02:27:47;1.80;99.90
26599;DHT22;14240;51.064;16.612;2023-04-03T02:30:12;1.70;99.90
26599;DHT22;14240;51.064;16.612;2023-04-03T02:32:40;1.70;99.90
26599;DHT22;14240;51.064;16.612;2023-04-03T02:35:07;1.60;99.90
26599;DHT22;14240;51.064;16.612;2023-04-03T02:37:32;1.60;99.90
26599;DHT22;14240;51.064;16.612;2023-04-03T02:39:58;1.60;99.90
26599;DHT22;14240;51.064;16.612;2023-04-03T02:42:24;1.60;99.90
26599;DHT22;14240;51.064;16.612;2023-04-03T02:44:50;1.50;99.90
26599;DHT22;14240;51.064;16.612;2023-04-03T02:47:15;1.50;99.90
26599;DHT22;14240;51.064;16.612;2023-04-03T02:49:41;1.40;99.90
26599;DHT22;14240;51.064;16.612;2023-04-03T02:52:12;1.40;99.90
26599;DHT22;14240;51.064;16.612;2023-04-03T02:54:37;1.40;99.90
26599;DHT22;14240;51.064;16.612;2023-04-03T02:57:03;1.40;99.90
26599;DHT22;14240;51.064;16.612;2023-04-03T02:59:29;1.30;99.90
26599;DHT22;14240;51.064;16.612;2023-04-03T03:01:55;1.30;99.90
26599;DHT22;14240;51.064;16.612;2023-04-03T03:04:21;1.30;99.90
26599;DHT22;14240;51.064;16.612;2023-04-03T03:06:47;1.30;99.90
26599;DHT22;14240;51.064;16.612;2023-04-03T03:09:13;1.30;99.90
26599;DHT22;14240;51.064;16.612;2023-04-03T03:11:40;1.30;99.90
26599;DHT22;14240;51.064;16.612;2023-04-03T03:14:05;1.30;99.90
26599;DHT22;14240;51.064;16.612;2023-04-03T03:16:31;1.30;99.90
26599;DHT22;14240;51.064;16.612;2023-04-03T03:18:57;1.20;99.90
26599;DHT22;14240;51.064;16.612;2023-04-03T03:21:22;1.20;99.90
26599;DHT22;14240;51.064;16.612;2023-04-03T03:23:48;1.30;99.90
26599;DHT22;14240;51.064;16.612;2023-04-03T03:26:14;1.20;99.90
26599;DHT22;14240;51.064;16.612;2023-04-03T03:28:40;1.20;99.90
26599;DHT22;14240;51.064;16.612;2023-04-03T03:31:07;1.20;99.90
26599;DHT22;14240;51.064;16.612;2023-04-03T03:33:33;1.20;99.90
26599;DHT22;14240;51.064;16.612;2023-04-03T03:36:00;1.20;99.90
26599;DHT22;14240;51.064;16.612;2023-04-03T03:38:26;1.20;99.90
26599;DHT22;14240;51.064;16.612;2023-04-03T03:40:52;1.20;99.90
26599;DHT22;14240;51.064;16.612;2023-04-03T03:43:18;1.20;99.90
26599;DHT22;14240;51.064;16.612;2023-04-03T03:45:46;1.20;99.90
26599;DHT22;14240;51.064;16.612;2023-04-03T03:48:14;1.10;99.90
26599;DHT22;14240;51.064;16.612;2023-04-03T03:50:40;1.10;99.90
26599;DHT22;14240;51.064;16.612;2023-04-03T03:53:06;1.10;99.90
26599;DHT22;14240;51.064;16.612;2023-04-03T03:55:32;1.10;99.90
26599;DHT22;14240;51.064;16.612;2023-04-03T03:57:57;1.10;99.90
26599;DHT22;14240;51.064;16.612;2023-04-03T04:00:23;1.10;99.90
26599;DHT22;14240;51.064;16.612;2023-04-03T04:02:49;1.10;99.90
26599;DHT22;14240;51.064;16.612;2023-04-03T04:05:14;1.10;99.90
26599;DHT22;14240;51.064;16.612;2023-04-03T04:07:40;1.10;99.90
26599;DHT22;14240;51.064;16.612;2023-04-03T04:10:06;1.00;99.90
26599;DHT22;14240;51.064;16.612;2023-04-03T04:12:35;1.00;99.90
26599;DHT22;14240;51.064;16.612;2023-04-03T04:15:01;1.00;99.90
26599;DHT22;14240;51.064;16.612;2023-04-03T04:17:27;0.90;99.90
26599;DHT22;14240;51.064;16.612;2023-04-03T04:19:52;1.00;99.90
26599;DHT22;14240;51.064;16.612;2023-04-03T04:22:18;0.90;99.90
26599;DHT22;14240;51.064;16.612;2023-04-03T04:24:44;0.90;99.90
26599;DHT22;14240;51.064;16.612;2023-04-03T04:27:10;0.90;99.90
26599;DHT22;14240;51.064;16.612;2023-04-03T04:29:35;0.80;99.90
26599;DHT22;14240;51.064;16.612;2023-04-03T04:32:03;0.80;99.90
26599;DHT22;14240;51.064;16.612;2023-04-03T04:34:29;0.80;99.90
26599;DHT22;14240;51.064;16.612;2023-04-03T04:36:55;0.80;99.90
26599;DHT22;14240;51.064;16.612;2023-04-03T04:39:21;0.70;99.90
26599;DHT22;14240;51.064;16.612;2023-04-03T04:41:46;0.70;99.90
26599;DHT22;14240;51.064;16.612;2023-04-03T04:44:12;0.70;99.90
26599;DHT22;14240;51.064;16.612;2023-04-03T04:46:38;0.70;99.90
26599;DHT22;14240;51.064;16.612;2023-04-03T04:49:04;0.70;99.90
26599;DHT22;14240;51.064;16.612;2023-04-03T04:51:29;0.60;99.90
26599;DHT22;14240;51.064;16.612;2023-04-03T04:53:55;0.60;99.90
26599;DHT22;14240;51.064;16.612;2023-04-03T04:56:21;0.60;99.90
26599;DHT22;14240;51.064;16.612;2023-04-03T04:58:49;0.70;99.90
26599;DHT22;14240;51.064;16.612;2023-04-03T05:01:17;0.70;99.90
26599;DHT22;14240;51.064;16.612;2023-04-03T05:03:43;0.80;99.90
26599;DHT22;14240;51.064;16.612;2023-04-03T05:06:09;0.90;99.90
26599;DHT22;14240;51.064;16.612;2023-04-03T05:08:35;1.10;99.90
26599;DHT22;14240;51.064;16.612;2023-04-03T05:11:01;1.20;99.90
26599;DHT22;14240;51.064;16.612;2023-04-03T05:13:27;1.30;99.90
26599;DHT22;14240;51.064;16.612;2023-04-03T05:15:52;1.40;99.90
26599;DHT22;14240;51.064;16.612;2023-04-03T05:18:18;1.40;99.90
26599;DHT22;14240;51.064;16.612;2023-04-03T05:20:44;1.30;99.90
26599;DHT22;14240;51.064;16.612;2023-04-03T05:23:10;1.40;99.90
26599;DHT22;14240;51.064;16.612;2023-04-03T05:25:39;1.30;99.90
26599;DHT22;14240;51.064;16.612;2023-04-03T05:28:05;1.30;99.90
26599;DHT22;14240;51.064;16.612;2023-04-03T05:30:31;1.30;99.90
26599;DHT22;14240;51.064;16.612;2023-04-03T05:32:58;1.30;99.90
26599;DHT22;14240;51.064;16.612;2023-04-03T05:35:24;1.30;99.90
26599;DHT22;14240;51.064;16.612;2023-04-03T05:37:50;1.40;99.90
26599;DHT22;14240;51.064;16.612;2023-04-03T05:40:16;1.50;99.90
26599;DHT22;14240;51.064;16.612;2023-04-03T05:42:42;1.50;99.90
26599;DHT22;14240;51.064;16.612;2023-04-03T05:45:08;1.60;99.90
26599;DHT22;14240;51.064;16.612;2023-04-03T05:47:33;1.70;99.90
26599;DHT22;14240;51.064;16.612;2023-04-03T05:49:59;1.70;99.90
26599;DHT22;14240;51.064;16.612;2023-04-03T05:52:30;1.80;99.90
26599;DHT22;14240;51.064;16.612;2023-04-03T05:54:56;1.80;99.90
26599;DHT22;14240;51.064;16.612;2023-04-03T05:57:22;1.80;99.90
26599;DHT22;14240;51.064;16.612;2023-04-03T05:59:48;1.80;99.90
26599;DHT22;14240;51.064;16.612;2023-04-03T06:02:17;1.90;99.90
26599;DHT22;14240;51.064;16.612;2023-04-03T06:04:43;1.90;99.90
26599;DHT22;14240;51.064;16.612;2023-04-03T06:07:12;1.90;99.90
26599;DHT22;14240;51.064;16.612;2023-04-03T06:09:38;2.00;99.90
26599;DHT22;14240;51.064;16.612;2023-04-03T06:12:04;2.00;99.90
26599;DHT22;14240;51.064;16.612;2023-04-03T06:14:30;2.00;99.90
26599;DHT22;14240;51.064;16.612;2023-04-03T06:16:56;2.10;99.90
26599;DHT22;14240;51.064;16.612;2023-04-03T06:19:22;2.20;99.90
26599;DHT22;14240;51.064;16.612;2023-04-03T06:21:48;2.30;99.90
26599;DHT22;14240;51.064;16.612;2023-04-03T06:24:16;2.50;99.90
26599;DHT22;14240;51.064;16.612;2023-04-03T06:26:42;2.60;99.90
26599;DHT22;14240;51.064;16.612;2023-04-03T06:29:08;2.80;99.90
26599;DHT22;14240;51.064;16.612;2023-04-03T06:31:34;3.00;99.90
26599;DHT22;14240;51.064;16.612;2023-04-03T06:34:02;3.30;99.90
26599;DHT22;14240;51.064;16.612;2023-04-03T06:36:28;3.60;99.90
26599;DHT22;14240;51.064;16.612;2023-04-03T06:38:54;4.00;99.90
26599;DHT22;14240;51.064;16.612;2023-04-03T06:41:20;4.30;99.90
26599;DHT22;14240;51.064;16.612;2023-04-03T06:43:47;4.70;99.90
26599;DHT22;14240;51.064;16.612;2023-04-03T06:46:20;4.90;99.90
26599;DHT22;14240;51.064;16.612;2023-04-03T06:48:47;5.20;99.90
26599;DHT22;14240;51.064;16.612;2023-04-03T06:51:29;5.50;99.90
26599;DHT22;14240;51.064;16.612;2023-04-03T06:53:57;5.80;99.90
26599;DHT22;14240;51.064;16.612;2023-04-03T06:56:24;6.20;99.90
26599;DHT22;14240;51.064;16.612;2023-04-03T06:58:51;6.50;99.90
26599;DHT22;14240;51.064;16.612;2023-04-03T07:01:17;6.50;99.90
26599;DHT22;14240;51.064;16.612;2023-04-03T07:03:45;6.40;99.90
26599;DHT22;14240;51.064;16.612;2023-04-03T07:06:13;6.40;99.90
26599;DHT22;14240;51.064;16.612;2023-04-03T07:08:39;6.60;99.90
26599;DHT22;14240;51.064;16.612;2023-04-03T07:11:06;6.70;99.90
26599;DHT22;14240;51.064;16.612;2023-04-03T07:13:32;7.10;99.90
26599;DHT22;14240;51.064;16.612;2023-04-03T07:15:58;7.20;99.90
26599;DHT22;14240;51.064;16.612;2023-04-03T07:18:24;7.20;99.90
26599;DHT22;14240;51.064;16.612;2023-04-03T07:20:50;7.20;99.90
26599;DHT22;14240;51.064;16.612;2023-04-03T07:23:17;7.40;99.90
26599;DHT22;14240;51.064;16.612;2023-04-03T07:25:44;7.70;99.90
26599;DHT22;14240;51.064;16.612;2023-04-03T07:28:10;7.70;99.90
26599;DHT22;14240;51.064;16.612;2023-04-03T07:30:45;7.70;99.90
26599;DHT22;14240;51.064;16.612;2023-04-03T07:33:12;7.70;99.90
26599;DHT22;14240;51.064;16.612;2023-04-03T07:35:39;8.30;99.90
26599;DHT22;14240;51.064;16.612;2023-04-03T07:38:05;9.10;99.90
26599;DHT22;14240;51.064;16.612;2023-04-03T07:40:31;10.00;99.90
26599;DHT22;14240;51.064;16.612;2023-04-03T07:42:57;10.70;99.90
26599;DHT22;14240;51.064;16.612;2023-04-03T07:45:24;10.90;99.80
26599;DHT22;14240;51.064;16.612;2023-04-03T07:47:50;11.20;99.90
26599;DHT22;14240;51.064;16.612;2023-04-03T07:50:16;11.80;98.40
26599;DHT22;14240;51.064;16.612;2023-04-03T07:52:42;12.40;96.90
26599;DHT22;14240;51.064;16.612;2023-04-03T07:55:08;13.00;96.50
26599;DHT22;14240;51.064;16.612;2023-04-03T07:57:33;13.60;95.20
26599;DHT22;14240;51.064;16.612;2023-04-03T07:59:59;14.20;93.30
26599;DHT22;14240;51.064;16.612;2023-04-03T08:02:25;14.90;92.00
26599;DHT22;14240;51.064;16.612;2023-04-03T08:04:50;15.40;89.10
26599;DHT22;14240;51.064;16.612;2023-04-03T08:07:16;15.50;86.80
26599;DHT22;14240;51.064;16.612;2023-04-03T08:09:42;15.60;83.40
26599;DHT22;14240;51.064;16.612;2023-04-03T08:12:07;15.90;84.00
26599;DHT22;14240;51.064;16.612;2023-04-03T08:14:33;16.00;81.70
26599;DHT22;14240;51.064;16.612;2023-04-03T08:17:02;15.90;77.50
26599;DHT22;14240;51.064;16.612;2023-04-03T08:19:29;15.80;78.40
26599;DHT22;14240;51.064;16.612;2023-04-03T08:21:55;15.80;76.80
26599;DHT22;14240;51.064;16.612;2023-04-03T08:24:22;15.60;77.80
26599;DHT22;14240;51.064;16.612;2023-04-03T08:26:47;15.70;77.50
26599;DHT22;14240;51.064;16.612;2023-04-03T08:29:13;16.00;76.00
26599;DHT22;14240;51.064;16.612;2023-04-03T08:31:39;16.00;71.20
26599;DHT22;14240;51.064;16.612;2023-04-03T08:34:04;15.90;72.90
26599;DHT22;14240;51.064;16.612;2023-04-03T08:36:30;16.10;71.00
26599;DHT22;14240;51.064;16.612;2023-04-03T08:38:56;16.30;71.50
26599;DHT22;14240;51.064;16.612;2023-04-03T08:41:39;16.40;68.50
26599;DHT22;14240;51.064;16.612;2023-04-03T08:52:34;15.60;66.50
26599;DHT22;14240;51.064;16.612;2023-04-03T08:55:07;14.90;64.60
26599;DHT22;14240;51.064;16.612;2023-04-03T08:57:39;14.40;69.00
26599;DHT22;14240;51.064;16.612;2023-04-03T09:00:21;14.10;67.20
26599;DHT22;14240;51.064;16.612;2023-04-03T09:02:53;13.80;70.70
26599;DHT22;14240;51.064;16.612;2023-04-03T09:05:38;13.80;68.80
26599;DHT22;14240;51.064;16.612;2023-04-03T09:10:33;13.00;70.70
26599;DHT22;14240;51.064;16.612;2023-04-03T09:13:36;12.80;72.50
26599;DHT22;14240;51.064;16.612;2023-04-03T09:19:15;12.30;71.20
26599;DHT22;14240;51.064;16.612;2023-04-03T09:21:45;11.80;71.60
26599;DHT22;14240;51.064;16.612;2023-04-03T09:24:13;11.50;72.20
26599;DHT22;14240;51.064;16.612;2023-04-03T09:26:59;11.30;74.00
26599;DHT22;14240;51.064;16.612;2023-04-03T09:29:28;11.10;74.50
26599;DHT22;14240;51.064;16.612;2023-04-03T09:32:01;10.90;74.10
26599;DHT22;14240;51.064;16.612;2023-04-03T09:34:36;10.70;75.70
26599;DHT22;14240;51.064;16.612;2023-04-03T09:37:04;10.50;75.10
26599;DHT22;14240;51.064;16.612;2023-04-03T09:39:33;11.20;75.90
26599;DHT22;14240;51.064;16.612;2023-04-03T09:42:24;10.20;77.00
26599;DHT22;14240;51.064;16.612;2023-04-03T09:45:01;10.10;75.50
26599;DHT22;14240;51.064;16.612;2023-04-03T09:52:41;9.60;75.10
26599;DHT22;14240;51.064;16.612;2023-04-03T09:55:17;9.50;76.60
26599;DHT22;14240;51.064;16.612;2023-04-03T09:57:45;9.50;78.30
26599;DHT22;14240;51.064;16.612;2023-04-03T10:00:26;9.50;79.20
26599;DHT22;14240;51.064;16.612;2023-04-03T10:02:57;9.40;77.90
26599;DHT22;14240;51.064;16.612;2023-04-03T10:05:39;9.30;76.90
26599;DHT22;14240;51.064;16.612;2023-04-03T10:10:47;9.00;77.90
26599;DHT22;14240;51.064;16.612;2023-04-03T10:13:18;8.90;78.70
26599;DHT22;14240;51.064;16.612;2023-04-03T10:15:55;8.90;79.40
26599;DHT22;14240;51.064;16.612;2023-04-03T10:21:32;8.80;78.50
26599;DHT22;14240;51.064;16.612;2023-04-03T10:26:55;8.50;78.80
26599;DHT22;14240;51.064;16.612;2023-04-03T10:30:32;8.50;77.40
26599;DHT22;14240;51.064;16.612;2023-04-03T10:38:04;8.00;79.30
26599;DHT22;14240;51.064;16.612;2023-04-03T10:46:55;8.30;78.70
26599;DHT22;14240;51.064;16.612;2023-04-03T10:49:45;8.20;79.40
26599;DHT22;14240;51.064;16.612;2023-04-03T10:57:41;8.10;81.30
26599;DHT22;14240;51.064;16.612;2023-04-03T11:00:16;8.10;81.90
26599;DHT22;14240;51.064;16.612;2023-04-03T11:02:59;8.00;81.20
26599;DHT22;14240;51.064;16.612;2023-04-03T11:10:59;7.70;81.80
26599;DHT22;14240;51.064;16.612;2023-04-03T11:13:42;7.60;80.60
26599;DHT22;14240;51.064;16.612;2023-04-03T11:16:15;7.50;80.90
26599;DHT22;14240;51.064;16.612;2023-04-03T11:18:47;7.50;82.70
26599;DHT22;14240;51.064;16.612;2023-04-03T11:21:39;7.70;83.30
26599;DHT22;14240;51.064;16.612;2023-04-03T11:24:17;7.90;84.50
26599;DHT22;14240;51.064;16.612;2023-04-03T11:26:46;8.00;84.10
26599;DHT22;14240;51.064;16.612;2023-04-03T11:29:20;7.90;82.70
26599;DHT22;14240;51.064;16.612;2023-04-03T11:34:48;7.70;81.50
26599;DHT22;14240;51.064;16.612;2023-04-03T11:37:38;7.60;81.20
26599;DHT22;14240;51.064;16.612;2023-04-03T11:40:06;7.50;81.50
26599;DHT22;14240;51.064;16.612;2023-04-03T11:42:37;7.40;81.30
26599;DHT22;14240;51.064;16.612;2023-04-03T11:47:49;7.20;82.20
26599;DHT22;14240;51.064;16.612;2023-04-03T12:00:46;7.10;81.30
26599;DHT22;14240;51.064;16.612;2023-04-03T12:08:43;7.10;83.50
26599;DHT22;14240;51.064;16.612;2023-04-03T12:13:41;7.30;82.90
26599;DHT22;14240;51.064;16.612;2023-04-03T12:21:15;7.40;83.40
26599;DHT22;14240;51.064;16.612;2023-04-03T12:23:58;7.40;83.90
26599;DHT22;14240;51.064;16.612;2023-04-03T12:26:26;7.40;83.60
26599;DHT22;14240;51.064;16.612;2023-04-03T12:28:53;7.30;83.30
26599;DHT22;14240;51.064;16.612;2023-04-03T12:31:20;7.20;83.70
26599;DHT22;14240;51.064;16.612;2023-04-03T12:34:09;7.10;83.90
26599;DHT22;14240;51.064;16.612;2023-04-03T12:42:13;7.30;84.30
26599;DHT22;14240;51.064;16.612;2023-04-03T12:45:20;7.40;84.60
26599;DHT22;14240;51.064;16.612;2023-04-03T12:47:45;7.30;84.10
26599;DHT22;14240;51.064;16.612;2023-04-03T12:52:52;7.20;84.40
26599;DHT22;14240;51.064;16.612;2023-04-03T12:55:20;7.20;84.20
26599;DHT22;14240;51.064;16.612;2023-04-03T12:57:47;7.10;84.40
26599;DHT22;14240;51.064;16.612;2023-04-03T13:00:28;7.10;84.00
26599;DHT22;14240;51.064;16.612;2023-04-03T13:02:54;7.10;84.40
26599;DHT22;14240;51.064;16.612;2023-04-03T13:05:21;7.10;84.30
26599;DHT22;14240;51.064;16.612;2023-04-03T13:08:01;7.10;84.50
26599;DHT22;14240;51.064;16.612;2023-04-03T13:10:28;7.00;83.60
26599;DHT22;14240;51.064;16.612;2023-04-03T13:12:56;6.90;84.40
26599;DHT22;14240;51.064;16.612;2023-04-03T13:15:29;6.80;84.70
26599;DHT22;14240;51.064;16.612;2023-04-03T13:17:56;6.80;85.60
26599;DHT22;14240;51.064;16.612;2023-04-03T13:20:32;6.80;86.50
26599;DHT22;14240;51.064;16.612;2023-04-03T13:23:07;6.90;85.60
26599;DHT22;14240;51.064;16.612;2023-04-03T13:25:36;6.90;84.90
26599;DHT22;14240;51.064;16.612;2023-04-03T13:28:05;7.00;85.40
26599;DHT22;14240;51.064;16.612;2023-04-03T13:30:34;6.90;84.00
26599;DHT22;14240;51.064;16.612;2023-04-03T13:33:04;6.70;82.50
26599;DHT22;14240;51.064;16.612;2023-04-03T13:35:35;6.60;84.50
26599;DHT22;14240;51.064;16.612;2023-04-03T13:40:49;6.70;85.30
26599;DHT22;14240;51.064;16.612;2023-04-03T13:43:27;6.80;84.70
26599;DHT22;14240;51.064;16.612;2023-04-03T13:48:47;7.10;84.70
26599;DHT22;14240;51.064;16.612;2023-04-03T13:54:00;7.10;83.20
26599;DHT22;14240;51.064;16.612;2023-04-03T13:58:59;7.00;83.60
26599;DHT22;14240;51.064;16.612;2023-04-03T14:01:34;6.90;83.60
26599;DHT22;14240;51.064;16.612;2023-04-03T14:04:01;6.80;83.10
26599;DHT22;14240;51.064;16.612;2023-04-03T14:06:35;6.70;83.10
26599;DHT22;14240;51.064;16.612;2023-04-03T14:09:01;6.70;83.10
26599;DHT22;14240;51.064;16.612;2023-04-03T14:11:29;6.60;84.50
26599;DHT22;14240;51.064;16.612;2023-04-03T14:13:59;6.70;85.80
26599;DHT22;14240;51.064;16.612;2023-04-03T14:16:29;6.80;83.80
26599;DHT22;14240;51.064;16.612;2023-04-03T14:18:56;6.80;83.70
26599;DHT22;14240;51.064;16.612;2023-04-03T14:21:22;6.80;83.70
26599;DHT22;14240;51.064;16.612;2023-04-03T14:23:48;6.80;84.20
26599;DHT22;14240;51.064;16.612;2023-04-03T14:26:20;6.70;85.40
26599;DHT22;14240;51.064;16.612;2023-04-03T14:28:49;6.80;84.60
26599;DHT22;14240;51.064;16.612;2023-04-03T14:31:16;6.80;84.00
26599;DHT22;14240;51.064;16.612;2023-04-03T14:33:43;6.80;83.70
26599;DHT22;14240;51.064;16.612;2023-04-03T14:36:30;6.60;83.80
26599;DHT22;14240;51.064;16.612;2023-04-03T14:38:57;6.50;85.10
26599;DHT22;14240;51.064;16.612;2023-04-03T14:41:24;6.50;85.60
26599;DHT22;14240;51.064;16.612;2023-04-03T14:43:51;6.50;85.60
26599;DHT22;14240;51.064;16.612;2023-04-03T14:46:31;6.40;84.40
26599;DHT22;14240;51.064;16.612;2023-04-03T14:48:57;6.30;84.50
26599;DHT22;14240;51.064;16.612;2023-04-03T14:51:23;6.30;85.40
26599;DHT22;14240;51.064;16.612;2023-04-03T14:53:49;6.20;86.30
26599;DHT22;14240;51.064;16.612;2023-04-03T14:56:25;6.20;86.50
26599;DHT22;14240;51.064;16.612;2023-04-03T14:58:58;6.20;86.40
26599;DHT22;14240;51.064;16.612;2023-04-03T15:01:26;6.20;86.10
26599;DHT22;14240;51.064;16.612;2023-04-03T15:03:51;6.20;86.40
26599;DHT22;14240;51.064;16.612;2023-04-03T15:06:18;6.20;86.60
26599;DHT22;14240;51.064;16.612;2023-04-03T15:08:45;6.10;86.20
26599;DHT22;14240;51.064;16.612;2023-04-03T15:11:12;6.00;87.60
26599;DHT22;14240;51.064;16.612;2023-04-03T15:13:39;6.00;87.60
26599;DHT22;14240;51.064;16.612;2023-04-03T15:16:06;6.10;87.80
26599;DHT22;14240;51.064;16.612;2023-04-03T15:18:38;6.00;88.10
26599;DHT22;14240;51.064;16.612;2023-04-03T15:21:05;6.00;87.70
26599;DHT22;14240;51.064;16.612;2023-04-03T15:23:30;6.00;88.20
26599;DHT22;14240;51.064;16.612;2023-04-03T15:25:56;6.10;87.50
26599;DHT22;14240;51.064;16.612;2023-04-03T15:28:35;6.10;87.00
26599;DHT22;14240;51.064;16.612;2023-04-03T15:31:02;6.10;87.40
26599;DHT22;14240;51.064;16.612;2023-04-03T15:33:29;6.10;86.00
26599;DHT22;14240;51.064;16.612;2023-04-03T15:35:55;6.10;86.30
26599;DHT22;14240;51.064;16.612;2023-04-03T15:38:20;6.10;87.20
26599;DHT22;14240;51.064;16.612;2023-04-03T15:40:46;6.10;86.90
26599;DHT22;14240;51.064;16.612;2023-04-03T15:43:13;6.10;85.90
26599;DHT22;14240;51.064;16.612;2023-04-03T15:45:39;6.10;86.80
26599;DHT22;14240;51.064;16.612;2023-04-03T15:48:06;6.00;86.30
26599;DHT22;14240;51.064;16.612;2023-04-03T15:50:33;6.00;86.40
26599;DHT22;14240;51.064;16.612;2023-04-03T15:52:59;5.80;86.00
26599;DHT22;14240;51.064;16.612;2023-04-03T15:55:32;5.80;86.70
26599;DHT22;14240;51.064;16.612;2023-04-03T15:57:59;5.70;87.60
26599;DHT22;14240;51.064;16.612;2023-04-03T16:00:25;5.70;88.30
26599;DHT22;14240;51.064;16.612;2023-04-03T16:03:05;5.60;89.10
26599;DHT22;14240;51.064;16.612;2023-04-03T16:05:32;5.60;89.50
26599;DHT22;14240;51.064;16.612;2023-04-03T16:08:00;5.60;89.50
26599;DHT22;14240;51.064;16.612;2023-04-03T16:10:26;5.60;89.40
26599;DHT22;14240;51.064;16.612;2023-04-03T16:12:52;5.60;89.10
26599;DHT22;14240;51.064;16.612;2023-04-03T16:15:18;5.70;89.00
26599;DHT22;14240;51.064;16.612;2023-04-03T16:17:44;5.60;89.00
26599;DHT22;14240;51.064;16.612;2023-04-03T16:20:11;5.60;89.00
26599;DHT22;14240;51.064;16.612;2023-04-03T16:22:38;5.60;89.00
26599;DHT22;14240;51.064;16.612;2023-04-03T16:25:06;5.50;88.40
26599;DHT22;14240;51.064;16.612;2023-04-03T16:27:32;5.50;88.40
26599;DHT22;14240;51.064;16.612;2023-04-03T16:29:58;5.50;89.20
26599;DHT22;14240;51.064;16.612;2023-04-03T16:32:26;5.50;89.40
26599;DHT22;14240;51.064;16.612;2023-04-03T16:34:52;5.40;89.60
26599;DHT22;14240;51.064;16.612;2023-04-03T16:37:18;5.40;90.20
26599;DHT22;14240;51.064;16.612;2023-04-03T16:39:44;5.40;90.40
26599;DHT22;14240;51.064;16.612;2023-04-03T16:42:10;5.30;90.60
26599;DHT22;14240;51.064;16.612;2023-04-03T16:44:36;5.30;90.60
26599;DHT22;14240;51.064;16.612;2023-04-03T16:47:02;5.30;90.80
26599;DHT22;14240;51.064;16.612;2023-04-03T16:49:28;5.20;90.30
26599;DHT22;14240;51.064;16.612;2023-04-03T16:52:00;5.20;90.30
26599;DHT22;14240;51.064;16.612;2023-04-03T16:54:26;5.20;90.40
26599;DHT22;14240;51.064;16.612;2023-04-03T16:56:52;5.10;90.30
26599;DHT22;14240;51.064;16.612;2023-04-03T16:59:18;5.10;90.50
26599;DHT22;14240;51.064;16.612;2023-04-03T17:01:44;5.00;90.70
26599;DHT22;14240;51.064;16.612;2023-04-03T17:04:09;5.00;90.80
26599;DHT22;14240;51.064;16.612;2023-04-03T17:06:35;5.40;91.40
26599;DHT22;14240;51.064;16.612;2023-04-03T17:09:01;4.90;91.20
26599;DHT22;14240;51.064;16.612;2023-04-03T17:11:28;4.90;91.10
26599;DHT22;14240;51.064;16.612;2023-04-03T17:13:54;4.90;91.20
26599;DHT22;14240;51.064;16.612;2023-04-03T17:16:20;4.80;91.30
26599;DHT22;14240;51.064;16.612;2023-04-03T17:18:47;4.70;91.60
26599;DHT22;14240;51.064;16.612;2023-04-03T17:21:13;4.70;91.50